sensor_id;sensor_type;location;lat;lon;timestamp;temperature;humidity
8178;DHT22;4130;48.740;9.132;2024-02-28T00:00:38;6.70;99.90
8178;DHT22;4130;48.740;9.132;2024-02-28T00:03:06;6.70;99.90
8178;DHT22;4130;48.740;9.132;2024-02-28T00:05:33;6.70;99.90
8178;DHT22;4130;48.740;9.132;2024-02-28T00:08:01;6.60;99.90
8178;DHT22;4130;48.740;9.132;2024-02-28T00:10:29;6.70;99.90
8178;DHT22;4130;48.740;9.132;2024-02-28T00:12:56;6.70;99.90
8178;DHT22;4130;48.740;9.132;2024-02-28T00:15:24;6.70;99.90
8178;DHT22;4130;48.740;9.132;2024-02-28T00:17:54;6.80;99.90
8178;DHT22;4130;48.740;9.132;2024-02-28T00:20:23;6.80;99.90
8178;DHT22;4130;48.740;9.132;2024-02-28T00:22:53;6.80;99.90
8178;DHT22;4130;48.740;9.132;2024-02-28T00:25:20;6.80;99.90
8178;DHT22;4130;48.740;9.132;2024-02-28T00:27:47;6.90;99.90
8178;DHT22;4130;48.740;9.132;2024-02-28T00:30:15;6.90;99.90
8178;DHT22;4130;48.740;9.132;2024-02-28T00:32:42;6.90;99.90
8178;DHT22;4130;48.740;9.132;2024-02-28T00:35:11;6.80;99.90
8178;DHT22;4130;48.740;9.132;2024-02-28T00:37:42;6.80;99.90
8178;DHT22;4130;48.740;9.132;2024-02-28T00:40:10;6.70;99.90
8178;DHT22;4130;48.740;9.132;2024-02-28T00:42:37;6.60;99.90
8178;DHT22;4130;48.740;9.132;2024-02-28T00:45:08;6.40;99.90
8178;DHT22;4130;48.740;9.132;2024-02-28T00:47:36;6.20;99.90
8178;DHT22;4130;48.740;9.132;2024-02-28T00:50:04;6.00;99.90
8178;DHT22;4130;48.740;9.132;2024-02-28T00:52:33;5.90;99.90
8178;DHT22;4130;48.740;9.132;2024-02-28T00:55:01;5.80;99.90
8178;DHT22;4130;48.740;9.132;2024-02-28T00:57:29;5.70;99.90
8178;DHT22;4130;48.740;9.132;2024-02-28T00:59:56;5.70;99.90
8178;DHT22;4130;48.740;9.132;2024-02-28T01:02:23;5.60;99.90
8178;DHT22;4130;48.740;9.132;2024-02-28T01:04:51;5.70;99.90
8178;DHT22;4130;48.740;9.132;2024-02-28T01:07:19;5.70;99.90
8178;DHT22;4130;48.740;9.132;2024-02-28T01:09:49;5.70;99.90
8178;DHT22;4130;48.740;9.132;2024-02-28T01:12:16;5.80;99.90
8178;DHT22;4130;48.740;9.132;2024-02-28T01:14:45;5.90;99.90
8178;DHT22;4130;48.740;9.132;2024-02-28T01:17:13;5.90;99.90
8178;DHT22;4130;48.740;9.132;2024-02-28T01:19:41;6.10;99.90
8178;DHT22;4130;48.740;9.132;2024-02-28T01:22:08;6.10;99.90
8178;DHT22;4130;48.740;9.132;2024-02-28T01:24:36;6.10;99.90
8178;DHT22;4130;48.740;9.132;2024-02-28T01:27:05;6.20;99.90
8178;DHT22;4130;48.740;9.132;2024-02-28T01:29:32;6.20;99.90
8178;DHT22;4130;48.740;9.132;2024-02-28T01:32:00;6.30;99.90
8178;DHT22;4130;48.740;9.132;2024-02-28T01:34:27;6.30;99.90
8178;DHT22;4130;48.740;9.132;2024-02-28T01:36:54;6.30;99.90
8178;DHT22;4130;48.740;9.132;2024-02-28T01:39:22;6.40;99.90
8178;DHT22;4130;48.740;9.132;2024-02-28T01:41:53;6.40;99.90
8178;DHT22;4130;48.740;9.132;2024-02-28T01:44:22;6.40;99.90
8178;DHT22;4130;48.740;9.132;2024-02-28T01:46:50;6.40;99.90
8178;DHT22;4130;48.740;9.132;2024-02-28T01:49:17;6.40;99.90
8178;DHT22;4130;48.740;9.132;2024-02-28T01:51:45;6.40;99.90
8178;DHT22;4130;48.740;9.132;2024-02-28T01:54:14;6.40;99.90
8178;DHT22;4130;48.740;9.132;2024-02-28T01:56:42;6.40;99.90
8178;DHT22;4130;48.740;9.132;2024-02-28T01:59:10;6.40;99.90
8178;DHT22;4130;48.740;9.132;2024-02-28T02:01:40;6.50;99.90
8178;DHT22;4130;48.740;9.132;2024-02-28T02:04:09;6.50;99.90
8178;DHT22;4130;48.740;9.132;2024-02-28T02:06:38;6.50;99.90
8178;DHT22;4130;48.740;9.132;2024-02-28T02:09:06;6.50;99.90
8178;DHT22;4130;48.740;9.132;2024-02-28T02:11:33;6.50;99.90
8178;DHT22;4130;48.740;9.132;2024-02-28T02:14:01;6.50;99.90
8178;DHT22;4130;48.740;9.132;2024-02-28T02:16:29;6.40;99.90
8178;DHT22;4130;48.740;9.132;2024-02-28T02:18:59;6.40;99.90
8178;DHT22;4130;48.740;9.132;2024-02-28T02:21:30;6.40;99.90
8178;DHT22;4130;48.740;9.132;2024-02-28T02:23:59;6.40;99.90
8178;DHT22;4130;48.740;9.132;2024-02-28T02:26:26;6.30;99.90
8178;DHT22;4130;48.740;9.132;2024-02-28T02:28:54;6.30;99.90
8178;DHT22;4130;48.740;9.132;2024-02-28T02:31:25;6.30;99.90
8178;DHT22;4130;48.740;9.132;2024-02-28T02:33:52;6.30;99.90
8178;DHT22;4130;48.740;9.132;2024-02-28T02:36:21;6.30;99.90
8178;DHT22;4130;48.740;9.132;2024-02-28T02:38:49;6.20;99.90
8178;DHT22;4130;48.740;9.132;2024-02-28T02:41:18;6.20;99.90
8178;DHT22;4130;48.740;9.132;2024-02-28T02:43:45;6.20;99.90
8178;DHT22;4130;48.740;9.132;2024-02-28T02:46:12;6.20;99.90
8178;DHT22;4130;48.740;9.132;2024-02-28T02:48:40;6.20;99.90
8178;DHT22;4130;48.740;9.132;2024-02-28T02:51:07;6.20;99.90
8178;DHT22;4130;48.740;9.132;2024-02-28T02:53:34;6.10;99.90
8178;DHT22;4130;48.740;9.132;2024-02-28T02:56:03;6.20;99.90
8178;DHT22;4130;48.740;9.132;2024-02-28T02:58:32;6.20;99.90
8178;DHT22;4130;48.740;9.132;2024-02-28T03:00:59;6.20;99.90
8178;DHT22;4130;48.740;9.132;2024-02-28T03:03:26;6.20;99.90
8178;DHT22;4130;48.740;9.132;2024-02-28T03:05:53;6.20;99.90
8178;DHT22;4130;48.740;9.132;2024-02-28T03:08:21;6.20;99.90
8178;DHT22;4130;48.740;9.132;2024-02-28T03:10:49;6.30;99.90
8178;DHT22;4130;48.740;9.132;2024-02-28T03:13:17;6.30;99.90
8178;DHT22;4130;48.740;9.132;2024-02-28T03:15:47;6.20;99.90
8178;DHT22;4130;48.740;9.132;2024-02-28T03:18:15;6.20;99.90
8178;DHT22;4130;48.740;9.132;2024-02-28T03:20:43;6.20;99.90
8178;DHT22;4130;48.740;9.132;2024-02-28T03:23:10;6.20;99.90
8178;DHT22;4130;48.740;9.132;2024-02-28T03:25:38;6.20;99.90
8178;DHT22;4130;48.740;9.132;2024-02-28T03:28:06;6.20;99.90
8178;DHT22;4130;48.740;9.132;2024-02-28T03:30:34;6.20;99.90
8178;DHT22;4130;48.740;9.132;2024-02-28T03:33:04;6.30;99.90
8178;DHT22;4130;48.740;9.132;2024-02-28T03:35:31;6.30;99.90
8178;DHT22;4130;48.740;9.132;2024-02-28T03:37:58;6.20;99.90
8178;DHT22;4130;48.740;9.132;2024-02-28T03:40:26;6.20;99.90
8178;DHT22;4130;48.740;9.132;2024-02-28T03:42:54;6.20;99.90
8178;DHT22;4130;48.740;9.132;2024-02-28T03:45:23;6.20;99.90
8178;DHT22;4130;48.740;9.132;2024-02-28T03:47:51;6.20;99.90
8178;DHT22;4130;48.740;9.132;2024-02-28T03:56:50;6.10;99.90
8178;DHT22;4130;48.740;9.132;2024-02-28T03:59:17;6.10;99.90
8178;DHT22;4130;48.740;9.132;2024-02-28T04:01:44;6.10;99.90
8178;DHT22;4130;48.740;9.132;2024-02-28T04:04:11;6.10;99.90
8178;DHT22;4130;48.740;9.132;2024-02-28T04:06:38;6.10;99.90
8178;DHT22;4130;48.740;9.132;2024-02-28T04:09:05;6.10;99.90
8178;DHT22;4130;48.740;9.132;2024-02-28T04:11:32;6.00;99.90
8178;DHT22;4130;48.740;9.132;2024-02-28T04:14:01;6.00;99.90
8178;DHT22;4130;48.740;9.132;2024-02-28T04:16:28;6.00;99.90
8178;DHT22;4130;48.740;9.132;2024-02-28T04:18:55;6.00;99.90
8178;DHT22;4130;48.740;9.132;2024-02-28T04:21:22;6.00;99.90
8178;DHT22;4130;48.740;9.132;2024-02-28T04:23:50;6.00;99.90
8178;DHT22;4130;48.740;9.132;2024-02-28T04:26:18;6.00;99.90
8178;DHT22;4130;48.740;9.132;2024-02-28T04:28:46;5.90;99.90
8178;DHT22;4130;48.740;9.132;2024-02-28T04:31:15;5.90;99.90
8178;DHT22;4130;48.740;9.132;2024-02-28T04:33:42;5.90;99.90
8178;DHT22;4130;48.740;9.132;2024-02-28T04:36:09;5.90;99.90
8178;DHT22;4130;48.740;9.132;2024-02-28T04:38:37;5.90;99.90
8178;DHT22;4130;48.740;9.132;2024-02-28T04:41:04;5.80;99.90
8178;DHT22;4130;48.740;9.132;2024-02-28T04:43:31;5.80;99.90
8178;DHT22;4130;48.740;9.132;2024-02-28T04:45:58;5.80;99.90
8178;DHT22;4130;48.740;9.132;2024-02-28T04:48:27;5.80;99.90
8178;DHT22;4130;48.740;9.132;2024-02-28T04:50:54;5.80;99.90
8178;DHT22;4130;48.740;9.132;2024-02-28T04:53:21;5.70;99.90
8178;DHT22;4130;48.740;9.132;2024-02-28T04:55:48;5.70;99.90
8178;DHT22;4130;48.740;9.132;2024-02-28T04:58:16;5.70;99.90
8178;DHT22;4130;48.740;9.132;2024-02-28T05:00:43;5.70;99.90
8178;DHT22;4130;48.740;9.132;2024-02-28T05:03:10;5.70;99.90
8178;DHT22;4130;48.740;9.132;2024-02-28T05:05:39;5.70;99.90
8178;DHT22;4130;48.740;9.132;2024-02-28T05:08:06;5.70;99.90
8178;DHT22;4130;48.740;9.132;2024-02-28T05:10:33;5.70;99.90
8178;DHT22;4130;48.740;9.132;2024-02-28T05:13:00;5.60;99.90
8178;DHT22;4130;48.740;9.132;2024-02-28T05:15:31;5.60;99.90
8178;DHT22;4130;48.740;9.132;2024-02-28T05:17:59;5.60;99.90
8178;DHT22;4130;48.740;9.132;2024-02-28T05:20:26;5.70;99.90
8178;DHT22;4130;48.740;9.132;2024-02-28T05:22:54;5.60;99.90
8178;DHT22;4130;48.740;9.132;2024-02-28T05:25:22;5.60;99.90
8178;DHT22;4130;48.740;9.132;2024-02-28T05:27:51;5.60;99.90
8178;DHT22;4130;48.740;9.132;2024-02-28T05:30:18;5.60;99.90
8178;DHT22;4130;48.740;9.132;2024-02-28T05:32:49;5.60;99.90
8178;DHT22;4130;48.740;9.132;2024-02-28T05:35:17;5.60;99.90
8178;DHT22;4130;48.740;9.132;2024-02-28T05:37:44;5.60;99.90
8178;DHT22;4130;48.740;9.132;2024-02-28T05:40:13;5.60;99.90
8178;DHT22;4130;48.740;9.132;2024-02-28T05:42:40;5.60;99.90
8178;DHT22;4130;48.740;9.132;2024-02-28T05:45:09;5.50;99.90
8178;DHT22;4130;48.740;9.132;2024-02-28T05:47:36;5.50;99.90
8178;DHT22;4130;48.740;9.132;2024-02-28T05:50:04;5.50;99.90
8178;DHT22;4130;48.740;9.132;2024-02-28T05:52:34;5.50;99.90
8178;DHT22;4130;48.740;9.132;2024-02-28T05:55:01;5.50;99.90
8178;DHT22;4130;48.740;9.132;2024-02-28T05:57:30;5.50;99.90
8178;DHT22;4130;48.740;9.132;2024-02-28T05:59:57;5.50;99.90
8178;DHT22;4130;48.740;9.132;2024-02-28T06:02:24;5.50;99.90
8178;DHT22;4130;48.740;9.132;2024-02-28T06:04:52;5.50;99.90
8178;DHT22;4130;48.740;9.132;2024-02-28T06:07:19;5.50;99.90
8178;DHT22;4130;48.740;9.132;2024-02-28T06:09:46;5.50;99.90
8178;DHT22;4130;48.740;9.132;2024-02-28T06:12:14;5.50;99.90
8178;DHT22;4130;48.740;9.132;2024-02-28T06:14:42;5.50;99.90
8178;DHT22;4130;48.740;9.132;2024-02-28T06:17:09;5.50;99.90
8178;DHT22;4130;48.740;9.132;2024-02-28T06:19:36;5.50;99.90
8178;DHT22;4130;48.740;9.132;2024-02-28T06:22:04;5.50;99.90
8178;DHT22;4130;48.740;9.132;2024-02-28T06:24:34;5.50;99.90
8178;DHT22;4130;48.740;9.132;2024-02-28T06:27:04;5.50;99.90
8178;DHT22;4130;48.740;9.132;2024-02-28T06:29:32;5.50;99.90
8178;DHT22;4130;48.740;9.132;2024-02-28T06:32:03;5.50;99.90
8178;DHT22;4130;48.740;9.132;2024-02-28T06:34:30;5.50;99.90
8178;DHT22;4130;48.740;9.132;2024-02-28T06:36:57;5.50;99.90
8178;DHT22;4130;48.740;9.132;2024-02-28T06:39:24;5.50;99.90
8178;DHT22;4130;48.740;9.132;2024-02-28T06:41:51;5.50;99.90
8178;DHT22;4130;48.740;9.132;2024-02-28T06:44:18;5.60;99.90
8178;DHT22;4130;48.740;9.132;2024-02-28T06:46:45;5.60;99.90
8178;DHT22;4130;48.740;9.132;2024-02-28T06:49:14;5.60;99.90
8178;DHT22;4130;48.740;9.132;2024-02-28T06:51:42;5.70;99.90
8178;DHT22;4130;48.740;9.132;2024-02-28T06:54:10;5.70;99.90
8178;DHT22;4130;48.740;9.132;2024-02-28T06:56:37;5.80;99.90
8178;DHT22;4130;48.740;9.132;2024-02-28T06:59:04;5.80;99.90
8178;DHT22;4130;48.740;9.132;2024-02-28T07:01:32;5.80;99.90
8178;DHT22;4130;48.740;9.132;2024-02-28T07:03:59;5.80;99.90
8178;DHT22;4130;48.740;9.132;2024-02-28T07:06:28;5.90;99.90
8178;DHT22;4130;48.740;9.132;2024-02-28T07:08:55;5.90;99.90
8178;DHT22;4130;48.740;9.132;2024-02-28T07:11:22;5.90;99.90
8178;DHT22;4130;48.740;9.132;2024-02-28T07:13:49;5.90;99.90
8178;DHT22;4130;48.740;9.132;2024-02-28T07:16:16;5.90;99.90
8178;DHT22;4130;48.740;9.132;2024-02-28T07:18:43;6.00;99.90
8178;DHT22;4130;48.740;9.132;2024-02-28T07:21:10;6.10;99.90
8178;DHT22;4130;48.740;9.132;2024-02-28T07:23:40;6.10;99.90
8178;DHT22;4130;48.740;9.132;2024-02-28T07:26:07;6.20;99.90
8178;DHT22;4130;48.740;9.132;2024-02-28T07:28:34;6.10;99.90
8178;DHT22;4130;48.740;9.132;2024-02-28T07:31:01;6.10;99.90
8178;DHT22;4130;48.740;9.132;2024-02-28T07:33:28;6.10;99.90
8178;DHT22;4130;48.740;9.132;2024-02-28T07:35:55;6.10;99.90
8178;DHT22;4130;48.740;9.132;2024-02-28T07:38:26;6.20;99.90
8178;DHT22;4130;48.740;9.132;2024-02-28T07:40:55;6.20;99.90
8178;DHT22;4130;48.740;9.132;2024-02-28T07:43:22;6.20;99.90
8178;DHT22;4130;48.740;9.132;2024-02-28T07:45:49;6.20;99.90
8178;DHT22;4130;48.740;9.132;2024-02-28T07:48:16;6.20;99.90
8178;DHT22;4130;48.740;9.132;2024-02-28T07:50:44;6.20;99.90
8178;DHT22;4130;48.740;9.132;2024-02-28T07:53:11;6.20;99.90
8178;DHT22;4130;48.740;9.132;2024-02-28T07:55:38;6.20;99.90
8178;DHT22;4130;48.740;9.132;2024-02-28T07:58:06;6.30;99.90
8178;DHT22;4130;48.740;9.132;2024-02-28T08:00:34;6.40;99.90
8178;DHT22;4130;48.740;9.132;2024-02-28T08:03:02;6.30;99.90
8178;DHT22;4130;48.740;9.132;2024-02-28T08:05:29;6.30;99.90
8178;DHT22;4130;48.740;9.132;2024-02-28T08:07:57;6.30;99.90
8178;DHT22;4130;48.740;9.132;2024-02-28T08:10:24;6.40;99.90
8178;DHT22;4130;48.740;9.132;2024-02-28T08:12:51;6.30;99.90
8178;DHT22;4130;48.740;9.132;2024-02-28T08:15:20;6.30;99.90
8178;DHT22;4130;48.740;9.132;2024-02-28T08:17:47;6.40;99.90
8178;DHT22;4130;48.740;9.132;2024-02-28T08:20:14;6.40;99.90
8178;DHT22;4130;48.740;9.132;2024-02-28T08:22:41;6.40;99.90
8178;DHT22;4130;48.740;9.132;2024-02-28T08:25:08;6.50;99.90
8178;DHT22;4130;48.740;9.132;2024-02-28T08:27:37;6.60;99.90
8178;DHT22;4130;48.740;9.132;2024-02-28T08:30:05;6.60;99.90
8178;DHT22;4130;48.740;9.132;2024-02-28T08:32:34;6.60;99.90
8178;DHT22;4130;48.740;9.132;2024-02-28T08:35:01;6.70;99.90
8178;DHT22;4130;48.740;9.132;2024-02-28T08:37:28;6.80;99.90
8178;DHT22;4130;48.740;9.132;2024-02-28T08:39:55;6.80;99.90
8178;DHT22;4130;48.740;9.132;2024-02-28T08:42:37;6.90;99.90
8178;DHT22;4130;48.740;9.132;2024-02-28T08:45:12;6.90;99.90
8178;DHT22;4130;48.740;9.132;2024-02-28T08:48:00;7.00;99.90
8178;DHT22;4130;48.740;9.132;2024-02-28T08:50:30;7.00;99.90
8178;DHT22;4130;48.740;9.132;2024-02-28T08:53:36;7.00;99.90
8178;DHT22;4130;48.740;9.132;2024-02-28T08:56:13;7.00;99.90
8178;DHT22;4130;48.740;9.132;2024-02-28T08:58:54;6.90;99.90
8178;DHT22;4130;48.740;9.132;2024-02-28T09:01:21;6.90;99.90
8178;DHT22;4130;48.740;9.132;2024-02-28T09:03:50;6.90;99.90
8178;DHT22;4130;48.740;9.132;2024-02-28T09:06:19;6.90;99.90
8178;DHT22;4130;48.740;9.132;2024-02-28T09:08:46;6.90;99.90
8178;DHT22;4130;48.740;9.132;2024-02-28T09:11:13;6.90;99.90
8178;DHT22;4130;48.740;9.132;2024-02-28T09:13:40;6.90;99.90
8178;DHT22;4130;48.740;9.132;2024-02-28T09:16:07;6.80;99.90
8178;DHT22;4130;48.740;9.132;2024-02-28T09:18:35;6.70;99.90
8178;DHT22;4130;48.740;9.132;2024-02-28T09:21:04;6.70;99.90
8178;DHT22;4130;48.740;9.132;2024-02-28T09:23:31;6.70;99.90
8178;DHT22;4130;48.740;9.132;2024-02-28T09:25:58;6.70;99.90
8178;DHT22;4130;48.740;9.132;2024-02-28T09:28:27;6.90;99.90
8178;DHT22;4130;48.740;9.132;2024-02-28T09:30:54;6.90;99.90
8178;DHT22;4130;48.740;9.132;2024-02-28T09:33:41;7.00;99.90
8178;DHT22;4130;48.740;9.132;2024-02-28T09:36:09;7.10;99.90
8178;DHT22;4130;48.740;9.132;2024-02-28T09:38:37;7.20;99.90
8178;DHT22;4130;48.740;9.132;2024-02-28T09:41:04;7.30;99.90
8178;DHT22;4130;48.740;9.132;2024-02-28T09:43:31;7.30;99.90
8178;DHT22;4130;48.740;9.132;2024-02-28T09:46:00;7.40;99.90
8178;DHT22;4130;48.740;9.132;2024-02-28T09:48:29;7.30;99.90
8178;DHT22;4130;48.740;9.132;2024-02-28T09:50:57;7.40;99.90
8178;DHT22;4130;48.740;9.132;2024-02-28T09:53:26;7.40;99.90
8178;DHT22;4130;48.740;9.132;2024-02-28T09:55:53;7.50;99.90
8178;DHT22;4130;48.740;9.132;2024-02-28T09:58:20;7.60;99.90
8178;DHT22;4130;48.740;9.132;2024-02-28T10:00:48;7.60;99.90
8178;DHT22;4130;48.740;9.132;2024-02-28T10:03:18;7.60;99.90
8178;DHT22;4130;48.740;9.132;2024-02-28T10:05:46;7.60;99.90
8178;DHT22;4130;48.740;9.132;2024-02-28T10:10:50;7.70;99.90
8178;DHT22;4130;48.740;9.132;2024-02-28T10:13:20;7.60;99.90
8178;DHT22;4130;48.740;9.132;2024-02-28T10:15:49;7.60;99.90
8178;DHT22;4130;48.740;9.132;2024-02-28T10:18:16;7.60;99.90
8178;DHT22;4130;48.740;9.132;2024-02-28T10:20:44;7.70;99.90
8178;DHT22;4130;48.740;9.132;2024-02-28T10:23:11;7.80;99.90
8178;DHT22;4130;48.740;9.132;2024-02-28T10:25:44;7.90;99.90
8178;DHT22;4130;48.740;9.132;2024-02-28T10:28:13;7.90;99.90
8178;DHT22;4130;48.740;9.132;2024-02-28T10:30:40;7.80;99.90
8178;DHT22;4130;48.740;9.132;2024-02-28T10:33:11;7.70;99.90
8178;DHT22;4130;48.740;9.132;2024-02-28T10:35:39;7.70;99.90
8178;DHT22;4130;48.740;9.132;2024-02-28T10:38:10;7.60;99.90
8178;DHT22;4130;48.740;9.132;2024-02-28T10:40:38;7.60;99.90
8178;DHT22;4130;48.740;9.132;2024-02-28T10:43:08;7.60;99.90
8178;DHT22;4130;48.740;9.132;2024-02-28T10:45:37;7.60;99.90
8178;DHT22;4130;48.740;9.132;2024-02-28T10:48:06;7.70;99.90
8178;DHT22;4130;48.740;9.132;2024-02-28T10:50:34;7.80;99.90
8178;DHT22;4130;48.740;9.132;2024-02-28T10:53:02;7.70;99.90
8178;DHT22;4130;48.740;9.132;2024-02-28T10:55:33;7.50;99.90
8178;DHT22;4130;48.740;9.132;2024-02-28T10:58:03;7.40;99.90
8178;DHT22;4130;48.740;9.132;2024-02-28T11:00:30;7.50;99.90
8178;DHT22;4130;48.740;9.132;2024-02-28T11:03:00;7.40;99.90
8178;DHT22;4130;48.740;9.132;2024-02-28T11:05:36;7.50;99.90
8178;DHT22;4130;48.740;9.132;2024-02-28T11:08:05;7.50;99.90
8178;DHT22;4130;48.740;9.132;2024-02-28T11:10:32;7.60;99.90
8178;DHT22;4130;48.740;9.132;2024-02-28T11:12:59;7.70;99.90
8178;DHT22;4130;48.740;9.132;2024-02-28T11:15:27;7.60;99.90
8178;DHT22;4130;48.740;9.132;2024-02-28T11:17:54;7.50;99.90
8178;DHT22;4130;48.740;9.132;2024-02-28T11:20:25;7.60;99.90
8178;DHT22;4130;48.740;9.132;2024-02-28T11:23:00;7.60;99.90
8178;DHT22;4130;48.740;9.132;2024-02-28T11:25:27;7.80;99.90
8178;DHT22;4130;48.740;9.132;2024-02-28T11:27:55;7.90;99.90
8178;DHT22;4130;48.740;9.132;2024-02-28T11:30:22;8.00;99.90
8178;DHT22;4130;48.740;9.132;2024-02-28T11:32:52;7.90;99.90
8178;DHT22;4130;48.740;9.132;2024-02-28T11:35:20;7.90;99.90
8178;DHT22;4130;48.740;9.132;2024-02-28T11:37:49;7.90;99.90
8178;DHT22;4130;48.740;9.132;2024-02-28T11:40:19;7.90;99.90
8178;DHT22;4130;48.740;9.132;2024-02-28T11:42:46;7.90;99.90
8178;DHT22;4130;48.740;9.132;2024-02-28T11:45:13;7.90;99.90
8178;DHT22;4130;48.740;9.132;2024-02-28T11:47:40;8.00;99.90
8178;DHT22;4130;48.740;9.132;2024-02-28T11:50:07;8.10;99.90
8178;DHT22;4130;48.740;9.132;2024-02-28T11:52:34;8.00;99.90
8178;DHT22;4130;48.740;9.132;2024-02-28T11:55:03;8.00;99.90
8178;DHT22;4130;48.740;9.132;2024-02-28T11:57:31;8.00;99.90
8178;DHT22;4130;48.740;9.132;2024-02-28T12:00:03;8.00;99.90
8178;DHT22;4130;48.740;9.132;2024-02-28T12:02:31;8.00;99.90
8178;DHT22;4130;48.740;9.132;2024-02-28T12:05:01;7.90;99.90
8178;DHT22;4130;48.740;9.132;2024-02-28T12:07:29;7.90;99.90
8178;DHT22;4130;48.740;9.132;2024-02-28T12:09:56;7.90;99.90
8178;DHT22;4130;48.740;9.132;2024-02-28T12:12:27;7.90;99.90
8178;DHT22;4130;48.740;9.132;2024-02-28T12:14:58;7.90;99.90
8178;DHT22;4130;48.740;9.132;2024-02-28T12:17:26;7.90;99.90
8178;DHT22;4130;48.740;9.132;2024-02-28T12:19:53;7.90;99.90
8178;DHT22;4130;48.740;9.132;2024-02-28T12:22:20;7.80;99.90
8178;DHT22;4130;48.740;9.132;2024-02-28T12:24:48;7.80;99.90
8178;DHT22;4130;48.740;9.132;2024-02-28T12:27:15;7.80;99.90
8178;DHT22;4130;48.740;9.132;2024-02-28T12:29:44;7.80;99.90
8178;DHT22;4130;48.740;9.132;2024-02-28T12:32:11;7.80;99.90
8178;DHT22;4130;48.740;9.132;2024-02-28T12:34:38;7.90;99.90
8178;DHT22;4130;48.740;9.132;2024-02-28T12:37:05;7.90;99.90
8178;DHT22;4130;48.740;9.132;2024-02-28T12:39:33;7.90;99.90
8178;DHT22;4130;48.740;9.132;2024-02-28T12:42:01;8.00;99.90
8178;DHT22;4130;48.740;9.132;2024-02-28T12:44:27;8.00;99.90
8178;DHT22;4130;48.740;9.132;2024-02-28T12:46:56;8.00;99.90
8178;DHT22;4130;48.740;9.132;2024-02-28T12:49:23;8.00;99.90
8178;DHT22;4130;48.740;9.132;2024-02-28T12:51:50;8.10;99.90
8178;DHT22;4130;48.740;9.132;2024-02-28T12:54:17;8.20;99.90
8178;DHT22;4130;48.740;9.132;2024-02-28T12:56:46;8.10;99.90
8178;DHT22;4130;48.740;9.132;2024-02-28T12:59:14;8.00;99.90
8178;DHT22;4130;48.740;9.132;2024-02-28T13:01:41;8.00;99.90
8178;DHT22;4130;48.740;9.132;2024-02-28T13:04:10;8.10;99.90
8178;DHT22;4130;48.740;9.132;2024-02-28T13:06:37;8.00;99.90
8178;DHT22;4130;48.740;9.132;2024-02-28T13:09:05;8.00;99.90
8178;DHT22;4130;48.740;9.132;2024-02-28T13:11:38;7.90;99.90
8178;DHT22;4130;48.740;9.132;2024-02-28T13:14:05;8.00;99.90
8178;DHT22;4130;48.740;9.132;2024-02-28T13:16:33;7.90;99.90
8178;DHT22;4130;48.740;9.132;2024-02-28T13:19:00;7.90;99.90
8178;DHT22;4130;48.740;9.132;2024-02-28T13:21:30;8.00;99.90
8178;DHT22;4130;48.740;9.132;2024-02-28T13:23:58;8.00;99.90
8178;DHT22;4130;48.740;9.132;2024-02-28T13:26:28;8.00;99.90
8178;DHT22;4130;48.740;9.132;2024-02-28T13:28:55;8.00;99.90
8178;DHT22;4130;48.740;9.132;2024-02-28T13:31:22;7.90;99.90
8178;DHT22;4130;48.740;9.132;2024-02-28T13:33:49;7.70;99.90
8178;DHT22;4130;48.740;9.132;2024-02-28T13:36:16;7.60;99.90
8178;DHT22;4130;48.740;9.132;2024-02-28T13:38:45;7.60;99.90
8178;DHT22;4130;48.740;9.132;2024-02-28T13:41:12;7.50;99.90
8178;DHT22;4130;48.740;9.132;2024-02-28T13:43:40;7.40;99.90
8178;DHT22;4130;48.740;9.132;2024-02-28T13:46:07;7.40;99.90
8178;DHT22;4130;48.740;9.132;2024-02-28T13:48:35;7.40;99.90
8178;DHT22;4130;48.740;9.132;2024-02-28T13:51:03;7.40;99.90
8178;DHT22;4130;48.740;9.132;2024-02-28T13:53:31;7.30;99.90
8178;DHT22;4130;48.740;9.132;2024-02-28T13:56:00;7.40;99.90
8178;DHT22;4130;48.740;9.132;2024-02-28T13:58:26;7.40;99.90
8178;DHT22;4130;48.740;9.132;2024-02-28T14:00:54;7.50;99.90
8178;DHT22;4130;48.740;9.132;2024-02-28T14:03:22;7.50;99.90
8178;DHT22;4130;48.740;9.132;2024-02-28T14:05:50;7.60;99.90
8178;DHT22;4130;48.740;9.132;2024-02-28T14:08:18;7.70;99.90
8178;DHT22;4130;48.740;9.132;2024-02-28T14:10:45;7.70;99.90
8178;DHT22;4130;48.740;9.132;2024-02-28T14:13:14;7.70;99.90
8178;DHT22;4130;48.740;9.132;2024-02-28T14:15:44;7.70;99.90
8178;DHT22;4130;48.740;9.132;2024-02-28T14:18:11;7.70;99.90
8178;DHT22;4130;48.740;9.132;2024-02-28T14:20:38;7.60;99.90
8178;DHT22;4130;48.740;9.132;2024-02-28T14:23:06;7.60;99.90
8178;DHT22;4130;48.740;9.132;2024-02-28T14:30:46;7.60;99.90
8178;DHT22;4130;48.740;9.132;2024-02-28T14:33:14;7.60;99.90
8178;DHT22;4130;48.740;9.132;2024-02-28T14:38:23;7.70;99.90
8178;DHT22;4130;48.740;9.132;2024-02-28T14:40:51;7.70;99.90
8178;DHT22;4130;48.740;9.132;2024-02-28T14:48:24;7.60;99.90
8178;DHT22;4130;48.740;9.132;2024-02-28T14:51:02;7.50;99.90
8178;DHT22;4130;48.740;9.132;2024-02-28T15:15:28;7.30;99.90
8178;DHT22;4130;48.740;9.132;2024-02-28T15:17:55;7.20;99.90
8178;DHT22;4130;48.740;9.132;2024-02-28T15:20:23;7.20;99.90
8178;DHT22;4130;48.740;9.132;2024-02-28T15:22:50;7.20;99.90
8178;DHT22;4130;48.740;9.132;2024-02-28T15:25:17;7.20;99.90
8178;DHT22;4130;48.740;9.132;2024-02-28T15:27:44;7.20;99.90
8178;DHT22;4130;48.740;9.132;2024-02-28T15:30:12;7.20;99.90
8178;DHT22;4130;48.740;9.132;2024-02-28T15:32:41;7.10;99.90
8178;DHT22;4130;48.740;9.132;2024-02-28T15:35:09;7.10;99.90
8178;DHT22;4130;48.740;9.132;2024-02-28T15:37:37;7.10;99.90
8178;DHT22;4130;48.740;9.132;2024-02-28T15:40:05;7.10;99.90
8178;DHT22;4130;48.740;9.132;2024-02-28T15:42:34;7.10;99.90
8178;DHT22;4130;48.740;9.132;2024-02-28T15:45:02;7.00;99.90
8178;DHT22;4130;48.740;9.132;2024-02-28T15:47:33;7.00;99.90
8178;DHT22;4130;48.740;9.132;2024-02-28T15:50:02;7.00;99.90
8178;DHT22;4130;48.740;9.132;2024-02-28T15:52:30;7.00;99.90
8178;DHT22;4130;48.740;9.132;2024-02-28T15:54:57;7.00;99.90
8178;DHT22;4130;48.740;9.132;2024-02-28T15:57:24;7.00;99.90
8178;DHT22;4130;48.740;9.132;2024-02-28T15:59:52;7.00;99.90
8178;DHT22;4130;48.740;9.132;2024-02-28T16:02:29;7.00;99.90
8178;DHT22;4130;48.740;9.132;2024-02-28T16:04:56;7.00;99.90
8178;DHT22;4130;48.740;9.132;2024-02-28T16:07:24;6.90;99.90
8178;DHT22;4130;48.740;9.132;2024-02-28T16:09:51;6.80;99.90
8178;DHT22;4130;48.740;9.132;2024-02-28T16:12:18;6.80;99.90
8178;DHT22;4130;48.740;9.132;2024-02-28T16:14:45;6.70;99.90
8178;DHT22;4130;48.740;9.132;2024-02-28T16:17:12;6.70;99.90
8178;DHT22;4130;48.740;9.132;2024-02-28T16:19:41;6.70;99.90
8178;DHT22;4130;48.740;9.132;2024-02-28T16:22:08;6.60;99.90
8178;DHT22;4130;48.740;9.132;2024-02-28T16:24:37;6.60;99.90
8178;DHT22;4130;48.740;9.132;2024-02-28T16:27:05;6.60;99.90
8178;DHT22;4130;48.740;9.132;2024-02-28T16:29:32;6.50;99.90
8178;DHT22;4130;48.740;9.132;2024-02-28T16:31:59;6.50;99.90
8178;DHT22;4130;48.740;9.132;2024-02-28T16:34:26;6.50;99.90
8178;DHT22;4130;48.740;9.132;2024-02-28T16:36:54;6.50;99.90
8178;DHT22;4130;48.740;9.132;2024-02-28T16:39:23;6.50;99.90
8178;DHT22;4130;48.740;9.132;2024-02-28T16:41:54;6.50;99.90
8178;DHT22;4130;48.740;9.132;2024-02-28T16:44:21;6.50;99.90
8178;DHT22;4130;48.740;9.132;2024-02-28T16:46:51;6.50;99.90
8178;DHT22;4130;48.740;9.132;2024-02-28T16:51:47;6.40;99.90
8178;DHT22;4130;48.740;9.132;2024-02-28T16:54:24;6.40;99.90
8178;DHT22;4130;48.740;9.132;2024-02-28T16:56:51;6.40;99.90
8178;DHT22;4130;48.740;9.132;2024-02-28T16:59:21;6.50;99.90
8178;DHT22;4130;48.740;9.132;2024-02-28T17:01:49;6.40;99.90
8178;DHT22;4130;48.740;9.132;2024-02-28T17:06:51;6.30;99.90
8178;DHT22;4130;48.740;9.132;2024-02-28T17:09:19;6.30;99.90
8178;DHT22;4130;48.740;9.132;2024-02-28T17:11:50;6.30;99.90